createdAt,value
2022-09-06T00:00:26.675Z,7.10
2022-09-06T00:05:22.353Z,5.50
2022-09-06T00:07:49.738Z,4.60
2022-09-06T00:10:17.409Z,5.93
2022-09-06T00:12:44.692Z,4.30
2022-09-06T00:15:12.090Z,4.93
2022-09-06T00:17:39.837Z,4.33
2022-09-06T00:20:10.872Z,4.43
2022-09-06T00:22:38.852Z,4.47
2022-09-06T00:25:07.427Z,5.05
2022-09-06T00:27:35.705Z,3.85
2022-09-06T00:30:04.881Z,4.05
2022-09-06T00:32:33.347Z,4.53
2022-09-06T00:35:01.050Z,5.85
2022-09-06T00:37:28.397Z,4.93
2022-09-06T00:39:56.180Z,4.87
2022-09-06T00:42:23.671Z,4.30
2022-09-06T00:44:51.226Z,3.77
2022-09-06T00:47:19.765Z,4.87
2022-09-06T00:49:52.318Z,4.97
2022-09-06T00:52:20.582Z,4.30
2022-09-06T00:54:50.261Z,5.27
2022-09-06T00:57:18.378Z,4.60
2022-09-06T00:59:47.762Z,4.85
2022-09-06T01:04:44.740Z,4.13
2022-09-06T01:07:47.764Z,4.97
2022-09-06T01:10:45.522Z,4.53
2022-09-06T01:13:21.294Z,5.40
2022-09-06T01:16:12.007Z,4.90
2022-09-06T01:19:11.108Z,5.27
2022-09-06T01:21:50.299Z,5.18
2022-09-06T01:24:48.044Z,5.00
2022-09-06T01:27:37.281Z,5.90
2022-09-06T01:30:07.945Z,4.20
2022-09-06T01:32:54.077Z,4.80
2022-09-06T01:35:58.446Z,4.87
2022-09-06T01:38:26.193Z,5.27
2022-09-06T01:40:54.088Z,4.87
2022-09-06T01:43:31.292Z,5.87
2022-09-06T01:46:20.799Z,4.33
2022-09-06T01:48:57.317Z,4.73
2022-09-06T01:51:35.459Z,4.10
2022-09-06T01:54:02.799Z,5.00
2022-09-06T01:56:53.384Z,5.93
2022-09-06T01:59:34.378Z,5.77
2022-09-06T02:02:17.350Z,5.30
2022-09-06T02:04:51.732Z,5.00
2022-09-06T02:07:28.547Z,4.67
2022-09-06T02:10:38.571Z,4.10
2022-09-06T02:13:07.751Z,3.90
2022-09-06T02:15:40.317Z,4.57
2022-09-06T02:18:16.394Z,4.17
2022-09-06T02:20:54.726Z,3.80
2022-09-06T02:23:25.478Z,3.63
2022-09-06T02:26:05.229Z,3.60
2022-09-06T02:28:33.241Z,3.57
2022-09-06T02:31:10.359Z,3.62
2022-09-06T02:33:38.161Z,3.27
2022-09-06T02:36:09.025Z,3.27
2022-09-06T02:38:39.622Z,3.47
2022-09-06T02:41:08.622Z,3.43
2022-09-06T02:43:36.369Z,3.92
2022-09-06T02:46:04.001Z,3.33
2022-09-06T02:48:31.761Z,3.50
2022-09-06T02:51:03.050Z,3.27
2022-09-06T02:53:30.393Z,3.50
2022-09-06T02:55:58.295Z,3.80
2022-09-06T02:58:25.743Z,3.73
2022-09-06T03:00:53.608Z,3.87
2022-09-06T03:03:22.300Z,3.45
2022-09-06T03:05:51.173Z,3.47
2022-09-06T03:08:20.599Z,3.80
2022-09-06T03:10:56.316Z,3.30
2022-09-06T03:13:24.834Z,3.73
2022-09-06T03:15:54.258Z,3.35
2022-09-06T03:18:29.411Z,4.20
2022-09-06T03:20:58.342Z,5.53
2022-09-06T03:23:28.348Z,3.70
2022-09-06T03:25:56.094Z,3.60
2022-09-06T03:28:24.001Z,4.30
2022-09-06T03:30:52.194Z,3.93
2022-09-06T03:33:21.772Z,3.50
2022-09-06T03:35:50.556Z,4.47
2022-09-06T03:38:18.513Z,4.30
2022-09-06T03:40:47.528Z,3.90
2022-09-06T03:43:17.343Z,4.53
2022-09-06T03:45:53.545Z,4.43
2022-09-06T03:48:23.543Z,5.07
2022-09-06T03:50:53.434Z,5.07
2022-09-06T03:53:22.466Z,5.27
2022-09-06T03:55:52.827Z,4.80
2022-09-06T03:58:22.655Z,3.90
2022-09-06T04:00:59.545Z,3.87
2022-09-06T04:03:27.369Z,3.33
2022-09-06T04:05:54.761Z,3.30
2022-09-06T04:08:22.244Z,3.00
2022-09-06T04:10:53.034Z,3.23
2022-09-06T04:13:21.110Z,3.00
2022-09-06T04:15:48.520Z,3.10
2022-09-06T04:18:17.086Z,3.43
2022-09-06T04:20:48.486Z,4.25
2022-09-06T04:23:16.726Z,3.37
2022-09-06T04:25:53.704Z,3.40
2022-09-06T04:28:22.230Z,3.80
2022-09-06T04:31:07.695Z,4.53
2022-09-06T04:33:36.595Z,4.97
2022-09-06T04:36:07.666Z,4.00
2022-09-06T04:38:43.627Z,4.13
2022-09-06T04:41:12.865Z,3.80
2022-09-06T04:43:42.525Z,4.10
2022-09-06T04:46:25.514Z,3.80
2022-09-06T04:48:55.302Z,3.83
2022-09-06T04:53:51.525Z,3.50
2022-09-06T04:56:25.264Z,3.70
2022-09-06T04:58:55.029Z,3.73
2022-09-06T05:01:23.408Z,3.57
2022-09-06T05:03:53.979Z,3.87
2022-09-06T05:06:25.114Z,3.70
2022-09-06T05:08:52.995Z,3.58
2022-09-06T05:11:20.647Z,4.03
2022-09-06T05:13:50.471Z,4.10
2022-09-06T05:16:18.475Z,4.03
2022-09-06T05:18:45.995Z,3.93
2022-09-06T05:21:13.777Z,3.80
2022-09-06T05:23:41.257Z,3.37
2022-09-06T05:26:08.921Z,3.50
2022-09-06T05:28:37.216Z,3.73
2022-09-06T05:31:09.806Z,4.20
2022-09-06T05:33:39.606Z,3.77
2022-09-06T05:36:08.814Z,3.42
2022-09-06T05:41:04.110Z,3.97
2022-09-06T05:43:31.534Z,4.20
2022-09-06T05:45:59.494Z,3.60
2022-09-06T05:48:27.477Z,4.50
2022-09-06T05:51:07.016Z,4.40
2022-09-06T05:53:36.020Z,5.00
2022-09-06T05:56:05.306Z,4.00
2022-09-06T05:58:32.839Z,5.30
2022-09-06T06:01:15.258Z,4.53
2022-09-06T06:03:50.023Z,4.80
2022-09-06T06:06:19.709Z,6.83
2022-09-06T06:08:48.410Z,6.75
2022-09-06T06:11:17.062Z,7.65
2022-09-06T06:13:44.792Z,7.25
2022-09-06T06:16:15.327Z,7.23
2022-09-06T06:18:42.886Z,6.97
2022-09-06T06:21:19.404Z,7.03
2022-09-06T06:23:49.526Z,7.17
2022-09-06T06:26:16.975Z,9.23
2022-09-06T06:28:44.700Z,11.13
2022-09-06T06:31:13.278Z,13.30
2022-09-06T06:33:40.860Z,14.98
2022-09-06T06:36:21.967Z,12.83
2022-09-06T06:38:52.209Z,14.17
2022-09-06T06:41:21.454Z,12.53
2022-09-06T06:43:48.797Z,12.90
2022-09-06T06:46:18.539Z,12.30
2022-09-06T06:48:48.635Z,12.43
2022-09-06T06:51:19.991Z,12.03
2022-09-06T06:53:49.139Z,12.93
2022-09-06T06:56:21.514Z,12.40
2022-09-06T06:58:51.479Z,11.67
2022-09-06T07:01:21.023Z,9.85
2022-09-06T07:03:49.721Z,11.35
2022-09-06T07:06:18.459Z,10.77
2022-09-06T07:08:46.985Z,10.18
2022-09-06T07:11:16.811Z,10.30
2022-09-06T07:13:45.755Z,11.25
2022-09-06T07:16:15.604Z,9.85
2022-09-06T07:18:45.401Z,9.40
2022-09-06T07:26:33.777Z,8.02
2022-09-06T07:29:03.061Z,7.68
2022-09-06T07:34:21.645Z,6.80
2022-09-06T07:36:56.495Z,6.53
2022-09-06T07:39:24.434Z,6.57
2022-09-06T07:41:52.567Z,6.20
2022-09-06T07:44:20.364Z,5.85
2022-09-06T07:46:48.014Z,5.87
2022-09-06T07:49:16.065Z,6.72
2022-09-06T07:51:43.485Z,7.20
2022-09-06T07:54:30.069Z,6.82
2022-09-06T07:56:58.667Z,6.43
2022-09-06T07:59:26.064Z,6.65
2022-09-06T08:01:53.771Z,6.37
2022-09-06T08:04:21.483Z,7.05
2022-09-06T08:09:38.866Z,6.93
2022-09-06T08:12:09.575Z,6.85
2022-09-06T08:14:36.977Z,7.25
2022-09-06T08:17:05.002Z,7.78
2022-09-06T08:19:32.681Z,7.30
2022-09-06T08:22:00.155Z,7.00
2022-09-06T08:24:27.966Z,7.57
2022-09-06T08:26:55.479Z,7.20
2022-09-06T08:29:22.924Z,7.75
2022-09-06T08:31:50.658Z,6.70
2022-09-06T08:34:18.102Z,6.70
2022-09-06T08:36:46.077Z,7.00
2022-09-06T08:39:13.822Z,6.30
2022-09-06T08:41:58.703Z,7.15
2022-09-06T08:44:57.352Z,5.93
2022-09-06T08:47:25.450Z,6.55
2022-09-06T08:50:12.007Z,5.70
2022-09-06T08:53:15.660Z,5.87
2022-09-06T08:55:55.932Z,6.07
2022-09-06T08:58:35.202Z,4.65
2022-09-06T09:01:07.790Z,4.40
2022-09-06T09:03:37.546Z,4.05
2022-09-06T09:06:09.455Z,4.85
2022-09-06T09:09:04.872Z,4.50
2022-09-06T09:11:36.251Z,4.18
2022-09-06T09:14:27.956Z,4.22
2022-09-06T09:17:00.278Z,4.68
2022-09-06T09:19:27.597Z,4.07
2022-09-06T09:21:55.890Z,4.37
2022-09-06T09:24:25.171Z,4.22
2022-09-06T09:27:02.992Z,4.05
2022-09-06T09:29:35.655Z,4.70
2022-09-06T09:32:04.039Z,3.83
2022-09-06T09:34:36.461Z,4.12
2022-09-06T09:40:26.262Z,4.00
2022-09-06T09:42:57.079Z,4.37
2022-09-06T09:45:34.493Z,4.47
2022-09-06T09:48:24.099Z,4.20
2022-09-06T09:50:52.010Z,4.90
2022-09-06T09:53:22.553Z,4.47
2022-09-06T09:55:56.373Z,4.35
2022-09-06T09:58:37.278Z,3.67
2022-09-06T10:01:20.216Z,3.50
2022-09-06T10:09:35.605Z,2.92
2022-09-06T10:12:03.625Z,3.20
2022-09-06T10:14:39.723Z,3.00
2022-09-06T10:17:07.874Z,3.08
2022-09-06T10:19:45.891Z,2.90
2022-09-06T10:22:21.606Z,2.97
2022-09-06T10:25:08.732Z,2.15
2022-09-06T10:27:55.682Z,2.50
2022-09-06T10:30:39.900Z,2.30
2022-09-06T10:33:26.897Z,3.62
2022-09-06T10:35:58.090Z,2.30
2022-09-06T10:38:35.927Z,2.25
2022-09-06T10:41:25.992Z,2.78
2022-09-06T10:44:08.914Z,2.15
2022-09-06T10:46:37.360Z,2.72
2022-09-06T10:49:09.836Z,3.08
2022-09-06T10:51:44.266Z,3.58
2022-09-06T10:54:14.244Z,3.53
2022-09-06T10:56:54.156Z,3.78
2022-09-06T11:02:32.976Z,3.62
2022-09-06T11:10:55.647Z,2.50
2022-09-06T11:13:28.520Z,2.22
2022-09-06T11:16:21.816Z,2.87
2022-09-06T11:19:04.255Z,2.10
2022-09-06T11:21:49.958Z,2.83
2022-09-06T11:24:26.215Z,3.42
2022-09-06T11:27:06.885Z,1.90
2022-09-06T11:29:39.247Z,2.22
2022-09-06T11:32:38.045Z,1.83
2022-09-06T11:35:11.346Z,2.10
2022-09-06T11:37:44.053Z,2.42
2022-09-06T11:42:59.569Z,2.12
2022-09-06T11:45:44.854Z,1.90
2022-09-06T11:48:24.171Z,1.98
2022-09-06T11:51:01.881Z,2.00
2022-09-06T11:53:32.865Z,2.28
2022-09-06T11:56:00.571Z,2.00
2022-09-06T11:58:40.339Z,1.92
2022-09-06T12:01:14.167Z,2.00
2022-09-06T12:06:41.019Z,2.20
2022-09-06T12:09:39.454Z,1.80
2022-09-06T12:14:43.388Z,2.17
2022-09-06T12:17:11.649Z,2.35
2022-09-06T12:19:44.379Z,2.60
2022-09-06T12:22:31.334Z,2.00
2022-09-06T12:25:02.072Z,3.50
2022-09-06T12:27:33.598Z,3.90
2022-09-06T12:30:07.080Z,2.30
2022-09-06T12:32:37.351Z,2.85
2022-09-06T12:38:06.679Z,2.17
2022-09-06T12:40:41.029Z,2.60
2022-09-06T12:43:11.986Z,2.47
2022-09-06T12:45:50.840Z,2.95
2022-09-06T12:48:35.534Z,2.75
2022-09-06T12:51:13.761Z,3.90
2022-09-06T12:53:41.189Z,4.10
2022-09-06T12:56:12.792Z,3.40
2022-09-06T12:58:40.914Z,3.85
2022-09-06T13:04:02.950Z,2.40
2022-09-06T13:06:37.528Z,2.90
2022-09-06T13:09:08.229Z,3.37
2022-09-06T13:11:41.911Z,3.30
2022-09-06T13:14:17.857Z,3.42
2022-09-06T13:16:53.865Z,3.35
2022-09-06T13:19:51.182Z,2.70
2022-09-06T13:22:40.491Z,2.78
2022-09-06T13:25:18.638Z,2.50
2022-09-06T13:27:51.292Z,3.42
2022-09-06T13:30:42.495Z,4.95
2022-09-06T13:33:26.090Z,4.28
2022-09-06T13:36:24.583Z,2.00
2022-09-06T13:38:52.591Z,3.12
2022-09-06T13:41:25.949Z,2.30
2022-09-06T13:44:06.168Z,3.22
2022-09-06T13:46:36.361Z,3.08
2022-09-06T13:49:05.833Z,2.45
2022-09-06T13:51:34.215Z,2.10
2022-09-06T13:54:10.785Z,2.10
2022-09-06T13:56:39.550Z,2.12
2022-09-06T13:59:10.051Z,2.50
2022-09-06T14:01:39.959Z,2.60
2022-09-06T14:04:08.468Z,2.12
2022-09-06T14:06:37.046Z,2.40
2022-09-06T14:09:07.768Z,2.53
2022-09-06T14:11:36.798Z,2.45
2022-09-06T14:14:05.102Z,2.20
2022-09-06T14:16:33.986Z,2.62
2022-09-06T14:19:02.828Z,2.20
2022-09-06T14:21:30.269Z,2.28
2022-09-06T14:24:03.329Z,2.63
2022-09-06T14:26:33.344Z,2.10
2022-09-06T14:29:00.876Z,3.12
2022-09-06T14:31:29.531Z,4.57
2022-09-06T14:33:58.500Z,2.30
2022-09-06T14:36:29.464Z,1.92
2022-09-06T14:38:59.428Z,1.92
2022-09-06T14:41:27.509Z,1.85
2022-09-06T14:43:57.461Z,2.17
2022-09-06T14:46:27.094Z,2.42
2022-09-06T14:49:01.025Z,4.03
2022-09-06T14:51:30.340Z,2.20
2022-09-06T14:54:02.304Z,1.83
2022-09-06T14:56:30.506Z,3.10
2022-09-06T14:59:00.015Z,2.10
2022-09-06T15:01:32.931Z,1.83
2022-09-06T15:04:04.995Z,2.60
2022-09-06T15:06:34.086Z,1.83
2022-09-06T15:09:01.567Z,2.03
2022-09-06T15:11:41.519Z,1.92
2022-09-06T15:14:14.179Z,2.10
2022-09-06T15:16:42.624Z,1.80
2022-09-06T15:19:10.456Z,2.08
2022-09-06T15:21:37.952Z,1.70
2022-09-06T15:24:11.559Z,1.75
2022-09-06T15:26:41.715Z,3.87
2022-09-06T15:29:13.715Z,2.10
2022-09-06T15:31:42.765Z,1.92
2022-09-06T15:34:10.634Z,2.25
2022-09-06T15:36:39.136Z,1.90
2022-09-06T15:39:06.869Z,2.03
2022-09-06T15:41:37.546Z,2.20
2022-09-06T15:44:13.651Z,2.30
2022-09-06T15:46:41.425Z,2.58
2022-09-06T15:49:11.102Z,2.87
2022-09-06T15:51:40.265Z,4.28
2022-09-06T15:54:09.455Z,2.70
2022-09-06T15:59:05.543Z,2.37
2022-09-06T16:04:06.827Z,2.72
2022-09-06T16:06:37.842Z,2.87
2022-09-06T16:09:09.166Z,2.40
2022-09-06T16:11:37.628Z,2.72
2022-09-06T16:14:07.193Z,2.37
2022-09-06T16:16:36.053Z,6.93
2022-09-06T16:19:03.770Z,8.98
2022-09-06T16:21:33.545Z,3.53
2022-09-06T16:24:04.758Z,12.85
2022-09-06T16:26:35.824Z,35.30
2022-09-06T16:29:05.255Z,9.32
2022-09-06T16:31:39.961Z,12.20
2022-09-06T16:34:09.280Z,9.52
2022-09-06T16:36:37.599Z,6.87
2022-09-06T16:39:05.783Z,5.65
2022-09-06T16:41:43.697Z,6.28
2022-09-06T16:44:16.837Z,4.25
2022-09-06T16:46:47.178Z,3.00
2022-09-06T16:49:17.469Z,3.90
2022-09-06T16:51:46.137Z,7.20
2022-09-06T16:54:15.686Z,4.22
2022-09-06T16:56:44.165Z,4.50
2022-09-06T16:59:12.566Z,6.40
2022-09-06T17:01:43.685Z,8.23
2022-09-06T17:04:13.041Z,7.37
2022-09-06T17:06:47.057Z,4.72
2022-09-06T17:09:18.838Z,4.68
2022-09-06T17:11:50.206Z,7.07
2022-09-06T17:14:18.691Z,3.37
2022-09-06T17:17:05.189Z,2.90
2022-09-06T17:19:39.620Z,10.25
2022-09-06T17:22:11.538Z,7.70
2022-09-06T17:24:40.834Z,5.65
2022-09-06T17:27:09.558Z,5.20
